createdAt,value
2018-09-18T00:00:54.985Z,99.90
2018-09-18T00:03:22.869Z,99.90
2018-09-18T00:05:50.709Z,99.90
2018-09-18T00:08:18.581Z,99.90
2018-09-18T00:10:46.331Z,99.90
2018-09-18T00:13:14.065Z,99.90
2018-09-18T00:15:41.804Z,99.90
2018-09-18T00:18:09.538Z,99.90
2018-09-18T00:20:37.314Z,99.90
2018-09-18T00:23:05.053Z,99.90
2018-09-18T00:25:32.877Z,99.90
2018-09-18T00:28:00.591Z,99.90
2018-09-18T00:30:28.330Z,99.90
2018-09-18T00:32:56.037Z,99.90
2018-09-18T00:35:23.889Z,99.90
2018-09-18T00:37:51.997Z,99.90
2018-09-18T00:40:20.348Z,99.90
2018-09-18T00:42:48.136Z,99.90
2018-09-18T00:45:16.050Z,99.90
2018-09-18T00:47:43.784Z,99.90
2018-09-18T00:50:11.553Z,99.90
2018-09-18T00:52:39.305Z,99.90
2018-09-18T00:55:07.093Z,99.90
2018-09-18T00:57:34.832Z,99.90
2018-09-18T01:00:02.573Z,99.90
2018-09-18T01:02:30.285Z,99.90
2018-09-18T01:04:58.010Z,99.90
2018-09-18T01:07:25.801Z,99.90
2018-09-18T01:09:53.549Z,99.90
2018-09-18T01:12:21.324Z,99.90
2018-09-18T01:14:49.728Z,99.90
2018-09-18T01:17:17.477Z,99.90
2018-09-18T01:19:45.201Z,99.90
2018-09-18T01:22:12.973Z,99.90
2018-09-18T01:24:40.681Z,99.90
2018-09-18T01:27:08.401Z,99.90
2018-09-18T01:29:36.137Z,99.90
2018-09-18T01:32:03.918Z,99.90
2018-09-18T01:34:31.649Z,99.90
2018-09-18T01:36:59.413Z,99.90
2018-09-18T01:39:27.157Z,99.90
2018-09-18T01:41:54.925Z,99.90
2018-09-18T01:44:22.661Z,99.90
2018-09-18T01:46:50.393Z,99.90
2018-09-18T01:49:18.133Z,99.90
2018-09-18T01:51:45.854Z,99.90
2018-09-18T01:54:13.585Z,99.90
2018-09-18T01:56:41.369Z,99.90
2018-09-18T01:59:09.297Z,99.90
2018-09-18T02:01:37.017Z,99.90
2018-09-18T02:04:04.758Z,99.90
2018-09-18T02:06:32.809Z,99.90
2018-09-18T02:09:00.541Z,99.90
2018-09-18T02:11:28.281Z,99.90
2018-09-18T02:13:56.049Z,99.90
2018-09-18T02:16:23.821Z,99.90
2018-09-18T02:18:51.617Z,99.90
2018-09-18T02:21:19.349Z,99.90
2018-09-18T02:23:47.085Z,99.90
2018-09-18T02:26:14.833Z,99.90
2018-09-18T02:28:42.596Z,99.90
2018-09-18T02:31:10.337Z,99.90
2018-09-18T02:33:38.078Z,99.90
2018-09-18T02:36:06.157Z,99.90
2018-09-18T02:38:33.893Z,99.90
2018-09-18T02:41:02.355Z,99.90
2018-09-18T02:43:30.066Z,99.90
2018-09-18T02:45:57.801Z,99.90
2018-09-18T02:48:25.524Z,99.90
2018-09-18T02:50:53.260Z,99.90
2018-09-18T02:53:20.970Z,99.90
2018-09-18T02:55:48.689Z,99.90
2018-09-18T02:58:16.425Z,99.90
2018-09-18T03:00:44.196Z,99.90
2018-09-18T03:03:11.969Z,99.90
2018-09-18T03:05:39.717Z,99.90
2018-09-18T03:08:07.445Z,99.90
2018-09-18T03:10:35.229Z,99.90
2018-09-18T03:13:03.462Z,99.90
2018-09-18T03:15:31.221Z,99.90
2018-09-18T03:17:59.029Z,99.90
2018-09-18T03:20:27.000Z,99.90
2018-09-18T03:22:54.865Z,99.90
2018-09-18T03:25:22.577Z,99.90
2018-09-18T03:27:50.268Z,99.90
2018-09-18T03:30:17.961Z,99.90
2018-09-18T03:32:45.750Z,99.90
2018-09-18T03:35:13.495Z,99.90
2018-09-18T03:37:41.222Z,99.90
2018-09-18T03:40:08.933Z,99.90
2018-09-18T03:42:36.692Z,99.90
2018-09-18T03:45:04.463Z,99.90
2018-09-18T03:47:32.193Z,99.90
2018-09-18T03:49:59.931Z,99.90
2018-09-18T03:52:27.641Z,99.90
2018-09-18T03:54:55.378Z,99.90
2018-09-18T03:57:23.078Z,99.90
2018-09-18T03:59:50.794Z,99.90
2018-09-18T04:02:18.489Z,99.90
2018-09-18T04:04:46.228Z,99.90
2018-09-18T04:07:14.077Z,99.90
2018-09-18T04:09:41.797Z,99.90
2018-09-18T04:12:09.613Z,99.90
2018-09-18T04:14:37.873Z,99.90
2018-09-18T04:17:05.646Z,99.90
2018-09-18T04:19:33.342Z,99.90
2018-09-18T04:22:01.058Z,99.90
2018-09-18T04:24:28.802Z,99.90
2018-09-18T04:26:56.534Z,99.90
2018-09-18T04:29:24.453Z,99.90
2018-09-18T04:31:53.693Z,99.90
2018-09-18T04:34:23.112Z,99.90
2018-09-18T04:36:52.507Z,99.90
2018-09-18T04:39:21.314Z,99.90
2018-09-18T04:41:50.797Z,99.90
2018-09-18T04:44:19.922Z,99.90
2018-09-18T04:46:49.323Z,99.90
2018-09-18T04:49:17.104Z,99.90
2018-09-18T04:51:44.838Z,99.90
2018-09-18T04:54:13.506Z,99.90
2018-09-18T04:56:43.085Z,99.90
2018-09-18T04:59:11.342Z,99.90
2018-09-18T05:01:40.405Z,99.90
2018-09-18T05:04:08.701Z,99.90
2018-09-18T05:06:38.590Z,99.90
2018-09-18T05:09:10.928Z,99.90
2018-09-18T05:11:39.473Z,99.90
2018-09-18T05:14:08.038Z,99.90
2018-09-18T05:16:37.264Z,99.90
2018-09-18T05:19:05.675Z,99.90
2018-09-18T05:21:34.921Z,99.90
2018-09-18T05:24:04.054Z,99.90
2018-09-18T05:26:31.881Z,99.90
2018-09-18T05:29:01.290Z,99.90
2018-09-18T05:31:29.799Z,99.90
2018-09-18T05:33:57.713Z,99.90
2018-09-18T05:36:25.417Z,99.90
2018-09-18T05:38:53.472Z,99.90
2018-09-18T05:41:21.172Z,99.90
2018-09-18T05:43:48.914Z,99.90
2018-09-18T05:46:16.785Z,99.90
2018-09-18T05:48:44.486Z,99.90
2018-09-18T05:51:12.209Z,99.90
2018-09-18T05:53:39.913Z,99.90
2018-09-18T05:56:07.650Z,99.90
2018-09-18T05:58:35.348Z,99.90
2018-09-18T06:01:03.049Z,99.90
2018-09-18T06:03:30.765Z,99.90
2018-09-18T06:05:58.470Z,99.90
2018-09-18T06:08:26.209Z,99.90
2018-09-18T06:10:54.613Z,99.90
2018-09-18T06:13:22.416Z,99.90
2018-09-18T06:15:50.180Z,99.90
2018-09-18T06:18:17.894Z,99.90
2018-09-18T06:20:45.613Z,99.90
2018-09-18T06:23:13.317Z,99.20
2018-09-18T06:25:41.042Z,99.00
2018-09-18T06:28:08.773Z,97.40
2018-09-18T06:30:38.190Z,97.40
2018-09-18T06:33:07.446Z,96.10
2018-09-18T06:35:37.617Z,95.20
2018-09-18T06:38:08.782Z,95.30
2018-09-18T06:40:38.278Z,94.50
2018-09-18T06:43:08.462Z,92.70
2018-09-18T06:45:37.771Z,92.80
2018-09-18T06:48:07.385Z,90.40
2018-09-18T06:50:37.522Z,89.90
2018-09-18T06:53:07.932Z,85.80
2018-09-18T06:55:38.006Z,83.10
2018-09-18T06:58:06.905Z,81.70
2018-09-18T07:00:36.382Z,81.40
2018-09-18T07:03:05.835Z,79.00
2018-09-18T07:05:35.315Z,76.60
2018-09-18T07:08:05.382Z,72.60
2018-09-18T07:10:34.713Z,76.60
2018-09-18T07:13:04.125Z,73.60
2018-09-18T07:15:34.097Z,76.80
2018-09-18T07:18:03.470Z,77.50
2018-09-18T07:20:33.756Z,78.20
2018-09-18T07:23:03.227Z,74.80
2018-09-18T07:25:33.002Z,74.10
2018-09-18T07:28:03.131Z,76.40
2018-09-18T07:30:34.443Z,75.00
2018-09-18T07:33:05.982Z,73.60
2018-09-18T07:35:36.394Z,73.40
2018-09-18T07:38:07.324Z,72.40
2018-09-18T07:40:37.785Z,69.80
2018-09-18T07:43:07.336Z,75.30
2018-09-18T07:45:37.133Z,78.30
2018-09-18T07:48:06.543Z,82.90
2018-09-18T07:50:37.307Z,83.10
2018-09-18T07:53:07.025Z,80.10
2018-09-18T07:55:36.067Z,78.80
2018-09-18T07:58:06.620Z,76.70
2018-09-18T08:00:35.787Z,74.10
2018-09-18T08:03:04.859Z,72.00
2018-09-18T08:05:34.122Z,70.10
2018-09-18T08:08:04.159Z,72.00
2018-09-18T08:10:32.877Z,72.40
2018-09-18T08:13:00.641Z,72.10
2018-09-18T08:15:28.369Z,72.80
2018-09-18T08:17:56.106Z,73.30
2018-09-18T08:20:23.837Z,69.40
2018-09-18T08:22:52.186Z,71.60
2018-09-18T08:25:20.150Z,64.20
2018-09-18T08:27:47.689Z,66.80
2018-09-18T08:30:15.404Z,77.00
2018-09-18T08:32:43.271Z,74.90
2018-09-18T08:35:10.866Z,67.80
2018-09-18T08:37:38.582Z,70.40
2018-09-18T08:40:06.340Z,66.10
2018-09-18T08:42:34.094Z,67.20
2018-09-18T08:45:01.919Z,65.20
2018-09-18T08:47:29.629Z,63.70
2018-09-18T08:49:57.747Z,66.30
2018-09-18T08:52:25.494Z,68.30
2018-09-18T08:54:53.226Z,66.80
2018-09-18T08:57:20.941Z,68.60
2018-09-18T08:59:48.640Z,68.70
2018-09-18T09:02:16.377Z,67.00
2018-09-18T09:04:44.136Z,70.50
2018-09-18T09:07:11.871Z,71.10
2018-09-18T09:09:40.053Z,71.50
2018-09-18T09:12:07.805Z,70.70
2018-09-18T09:14:36.196Z,66.10
2018-09-18T09:17:03.874Z,65.70
2018-09-18T09:19:31.654Z,67.20
2018-09-18T09:21:59.581Z,63.80
2018-09-18T09:24:27.297Z,62.80
2018-09-18T09:26:55.046Z,64.80
2018-09-18T09:29:22.758Z,69.30
2018-09-18T09:31:50.901Z,72.30
2018-09-18T09:34:18.611Z,71.60
2018-09-18T09:36:46.439Z,66.20
2018-09-18T09:39:14.066Z,62.40
2018-09-18T09:41:41.823Z,63.70
2018-09-18T09:44:09.534Z,64.80
2018-09-18T09:46:37.330Z,67.00
2018-09-18T09:49:06.561Z,70.30
2018-09-18T09:51:36.705Z,69.40
2018-09-18T09:54:06.566Z,68.20
2018-09-18T09:56:35.872Z,69.40
2018-09-18T09:59:04.971Z,71.80
2018-09-18T10:01:39.268Z,71.30
2018-09-18T10:04:09.196Z,70.90
2018-09-18T10:06:37.635Z,68.20
2018-09-18T10:09:08.550Z,71.00
2018-09-18T10:11:36.847Z,69.90
2018-09-18T10:14:04.578Z,68.60
2018-09-18T10:16:32.315Z,68.90
2018-09-18T10:19:00.055Z,67.70
2018-09-18T10:21:27.776Z,69.10
2018-09-18T10:23:55.522Z,69.20
2018-09-18T10:26:23.266Z,70.00
2018-09-18T10:28:50.978Z,72.50
2018-09-18T10:31:18.694Z,72.70
2018-09-18T10:33:46.770Z,73.70
2018-09-18T10:36:15.745Z,75.80
2018-09-18T10:38:45.409Z,76.20
2018-09-18T10:41:15.056Z,74.00
2018-09-18T10:43:44.218Z,73.00
2018-09-18T10:46:11.958Z,73.50
2018-09-18T10:48:45.077Z,74.10
2018-09-18T10:51:12.773Z,73.60
2018-09-18T10:53:40.727Z,74.90
2018-09-18T10:56:08.412Z,73.90
2018-09-18T10:58:36.165Z,73.00
2018-09-18T11:01:04.414Z,75.90
2018-09-18T11:03:32.171Z,74.20
2018-09-18T11:06:00.548Z,72.00
2018-09-18T11:08:28.346Z,72.00
2018-09-18T12:46:42.626Z,57.30
2018-09-18T12:49:10.440Z,56.70
2018-09-18T12:51:38.153Z,57.50
2018-09-18T12:54:06.035Z,57.50
2018-09-18T12:56:33.697Z,55.20
2018-09-18T12:59:01.485Z,56.60
2018-09-18T13:01:29.146Z,58.20
2018-09-18T13:03:56.918Z,57.00
2018-09-18T13:06:24.806Z,54.80
2018-09-18T13:08:52.428Z,56.60
2018-09-18T13:11:20.169Z,56.00
2018-09-18T13:13:47.921Z,56.70
2018-09-18T13:16:15.684Z,57.90
2018-09-18T13:18:43.382Z,57.80
2018-09-18T13:21:11.267Z,56.90
2018-09-18T13:23:39.010Z,58.00
2018-09-18T13:26:06.874Z,57.00
2018-09-18T13:28:34.594Z,57.00
2018-09-18T13:31:02.318Z,57.90
2018-09-18T13:33:30.033Z,56.20
2018-09-18T13:35:57.737Z,57.50
2018-09-18T13:38:25.433Z,57.40
2018-09-18T13:40:53.215Z,56.80
2018-09-18T13:43:21.021Z,58.00
2018-09-18T13:45:48.914Z,58.00
2018-09-18T13:48:16.609Z,57.60
2018-09-18T13:50:44.330Z,59.50
2018-09-18T13:53:12.106Z,59.10
2018-09-18T13:55:40.126Z,60.00
2018-09-18T13:58:07.809Z,59.70
2018-09-18T14:00:35.525Z,58.90
2018-09-18T14:03:03.229Z,60.20
2018-09-18T14:05:31.220Z,61.10
2018-09-18T14:07:58.893Z,62.20
2018-09-18T14:10:26.687Z,63.80
2018-09-18T14:12:54.418Z,65.10
2018-09-18T14:15:22.205Z,65.20
2018-09-18T14:17:49.910Z,66.70
2018-09-18T14:20:17.693Z,66.90
2018-09-18T14:22:47.021Z,66.80
2018-09-18T14:25:14.802Z,66.30
2018-09-18T14:27:42.935Z,68.00
2018-09-18T14:30:10.817Z,73.30
2018-09-18T14:32:38.527Z,78.10
2018-09-18T14:35:06.401Z,79.90
2018-09-18T14:37:34.474Z,82.00
2018-09-18T14:40:02.201Z,82.80
2018-09-18T14:42:29.926Z,85.60
2018-09-18T14:44:57.633Z,87.70
2018-09-18T14:47:25.353Z,88.50
2018-09-18T14:49:53.058Z,87.10
2018-09-18T14:52:20.786Z,87.90
2018-09-18T14:54:48.539Z,88.80
2018-09-18T14:57:16.458Z,90.00
2018-09-18T14:59:44.657Z,89.10
2018-09-18T15:02:12.512Z,90.40
2018-09-18T15:04:40.310Z,90.60
2018-09-18T15:07:08.091Z,90.60
2018-09-18T15:09:35.894Z,87.10
2018-09-18T15:12:03.736Z,87.10
2018-09-18T15:14:31.532Z,87.10
2018-09-18T15:16:59.502Z,86.80
2018-09-18T15:19:27.247Z,87.00
2018-09-18T15:21:55.017Z,87.40
2018-09-18T15:24:22.737Z,86.30
2018-09-18T15:26:50.462Z,87.40
2018-09-18T15:29:18.163Z,87.10
2018-09-18T15:31:45.864Z,81.20
2018-09-18T15:34:16.105Z,82.50
2018-09-18T15:36:43.849Z,80.70
2018-09-18T15:39:11.567Z,79.90
2018-09-18T15:41:39.505Z,82.80
2018-09-18T15:44:09.245Z,83.90
2018-09-18T15:46:38.710Z,82.80
2018-09-18T15:49:06.505Z,81.30
2018-09-18T15:51:36.642Z,81.30
2018-09-18T15:54:05.574Z,79.50
2018-09-18T15:56:33.961Z,79.60
2018-09-18T15:59:02.706Z,79.00
2018-09-18T16:01:35.209Z,81.00
2018-09-18T16:04:02.937Z,80.10
2018-09-18T16:06:31.773Z,78.10
2018-09-18T16:09:02.025Z,81.20
2018-09-18T16:11:31.273Z,81.70
2018-09-18T16:14:00.041Z,81.80
2018-09-18T16:16:30.378Z,82.30
2018-09-18T16:19:03.802Z,86.10
2018-09-18T16:21:31.645Z,88.20
2018-09-18T16:23:59.361Z,90.20
2018-09-18T16:26:27.073Z,90.10
2018-09-18T16:28:55.107Z,90.50
2018-09-18T16:31:22.810Z,90.10
2018-09-18T16:33:50.728Z,90.20
2018-09-18T16:36:18.445Z,90.20
2018-09-18T16:38:46.910Z,90.80
2018-09-18T16:41:14.746Z,90.90
2018-09-18T16:43:42.464Z,90.80
2018-09-18T16:46:10.430Z,91.80
2018-09-18T16:48:38.214Z,92.80
2018-09-18T16:51:06.925Z,93.30
2018-09-18T16:53:34.634Z,93.80
2018-09-18T16:56:02.383Z,93.90
2018-09-18T16:58:30.114Z,93.80
2018-09-18T17:00:57.925Z,93.70
2018-09-18T17:03:25.823Z,93.80
2018-09-18T17:05:54.301Z,93.30
2018-09-18T17:08:22.221Z,93.10
2018-09-18T17:10:50.534Z,93.70
2018-09-18T17:13:18.370Z,93.50
2018-09-18T17:15:46.234Z,93.80
2018-09-18T17:18:13.972Z,94.30
2018-09-18T17:20:41.693Z,94.40
2018-09-18T17:23:09.405Z,93.80
2018-09-18T17:25:37.109Z,93.70
2018-09-18T17:28:05.069Z,93.40
2018-09-18T17:30:32.859Z,93.00
2018-09-18T17:33:00.642Z,93.30
2018-09-18T17:35:28.382Z,93.70
2018-09-18T17:37:56.117Z,94.20
2018-09-18T17:40:23.953Z,95.30
2018-09-18T17:42:53.383Z,95.40
2018-09-18T17:45:21.323Z,94.00
2018-09-18T17:47:49.026Z,95.00
2018-09-18T17:50:18.556Z,95.60
2018-09-18T17:52:47.588Z,95.90
2018-09-18T17:55:17.365Z,95.80
2018-09-18T17:57:45.947Z,93.60
2018-09-18T18:00:14.887Z,91.20
2018-09-18T18:02:45.098Z,89.10
2018-09-18T18:05:22.964Z,88.50
2018-09-18T18:07:52.374Z,87.80
2018-09-18T18:10:21.223Z,87.20
2018-09-18T18:12:50.233Z,88.40
2018-09-18T18:15:18.426Z,88.40
2018-09-18T18:17:48.034Z,89.50
2018-09-18T18:20:17.875Z,90.90
2018-09-18T18:22:46.662Z,90.50
2018-09-18T18:25:14.407Z,90.20
2018-09-18T18:27:43.523Z,90.50
2018-09-18T18:30:11.791Z,91.20
2018-09-18T18:32:39.816Z,91.60
2018-09-18T18:35:09.370Z,92.00
2018-09-18T18:37:38.244Z,92.30
2018-09-18T18:40:06.453Z,92.70
2018-09-18T18:42:35.134Z,93.10
2018-09-18T18:45:04.262Z,93.00
2018-09-18T18:47:32.704Z,93.60
2018-09-18T18:50:00.959Z,93.60
2018-09-18T18:52:29.842Z,94.20
2018-09-18T18:54:58.610Z,94.30
2018-09-18T18:57:27.646Z,94.50
2018-09-18T18:59:56.141Z,94.30
2018-09-18T19:02:24.183Z,94.90
2018-09-18T19:04:52.046Z,95.00
2018-09-18T19:07:19.845Z,95.20
2018-09-18T19:09:47.879Z,95.50
2018-09-18T19:12:16.597Z,95.60
2018-09-18T19:14:45.040Z,95.90
2018-09-18T19:17:13.360Z,96.10
2018-09-18T19:19:42.417Z,96.30
2018-09-18T19:22:10.881Z,96.80
2018-09-18T19:24:38.657Z,97.30
2018-09-18T19:27:06.439Z,97.50
2018-09-18T19:29:34.364Z,97.80
2018-09-18T19:32:02.747Z,98.00
2018-09-18T19:34:32.112Z,98.30
2018-09-18T19:37:01.105Z,98.60
2018-09-18T19:39:31.107Z,98.60
2018-09-18T19:41:59.199Z,98.40
2018-09-18T19:44:28.251Z,98.30
2018-09-18T19:46:55.965Z,98.30
2018-09-18T19:49:24.789Z,98.30
2018-09-18T19:51:53.608Z,97.90
2018-09-18T19:54:21.649Z,98.20
2018-09-18T19:56:51.017Z,98.70
2018-09-18T19:59:19.650Z,98.80
2018-09-18T20:01:48.257Z,98.90
2018-09-18T20:04:16.804Z,99.20
2018-09-18T20:06:45.363Z,99.50
2018-09-18T20:09:14.095Z,99.60
2018-09-18T20:11:43.438Z,99.70
2018-09-18T20:14:11.838Z,99.90
2018-09-18T20:16:40.654Z,99.90
2018-09-18T20:19:09.293Z,99.90
2018-09-18T20:21:38.176Z,99.90
2018-09-18T20:24:08.215Z,99.90
2018-09-18T20:26:36.714Z,99.90
2018-09-18T20:29:05.587Z,99.90
2018-09-18T20:31:36.192Z,99.90
2018-09-18T20:34:05.258Z,99.90
2018-09-18T20:36:34.996Z,99.90
2018-09-18T20:39:05.319Z,99.90
2018-09-18T20:41:34.349Z,99.90
2018-09-18T20:44:03.550Z,99.90
2018-09-18T20:46:32.773Z,99.90
2018-09-18T20:49:00.680Z,99.90
2018-09-18T20:51:29.328Z,99.90
2018-09-18T20:53:58.637Z,99.90
2018-09-18T20:56:26.938Z,99.90
2018-09-18T20:58:55.097Z,99.90
2018-09-18T21:01:23.681Z,99.90
2018-09-18T21:03:51.813Z,99.90
2018-09-18T21:06:21.304Z,99.90
2018-09-18T21:08:49.546Z,99.90
2018-09-18T21:11:17.874Z,99.90
2018-09-18T21:13:46.200Z,99.90
2018-09-18T21:16:14.302Z,99.90
2018-09-18T21:18:42.553Z,99.90
2018-09-18T21:21:11.815Z,99.90
2018-09-18T21:23:40.393Z,99.90
2018-09-18T21:26:17.290Z,99.90
2018-09-18T21:28:46.064Z,99.90
2018-09-18T21:31:14.035Z,99.90
2018-09-18T21:33:43.487Z,99.90
2018-09-18T21:36:11.843Z,99.90
2018-09-18T21:38:39.901Z,99.90
2018-09-18T21:41:09.225Z,99.90
2018-09-18T21:43:38.026Z,99.90
2018-09-18T21:46:05.776Z,99.90
2018-09-18T21:48:34.044Z,99.90
2018-09-18T21:51:02.728Z,99.90
2018-09-18T21:53:31.293Z,99.90
2018-09-18T21:56:00.306Z,99.90
2018-09-18T21:58:29.703Z,99.90
2018-09-18T22:01:03.885Z,99.90
2018-09-18T22:03:34.440Z,99.90
2018-09-18T22:06:02.666Z,99.90
2018-09-18T22:08:30.418Z,99.90
2018-09-18T22:10:58.132Z,99.90
2018-09-18T22:13:25.877Z,99.90
2018-09-18T22:15:53.577Z,99.90
2018-09-18T22:18:21.328Z,99.90
2018-09-18T22:20:49.041Z,99.90
2018-09-18T22:23:16.755Z,99.90
2018-09-18T22:25:44.489Z,99.90
2018-09-18T22:28:12.187Z,99.90
2018-09-18T22:30:39.914Z,99.90
2018-09-18T22:33:07.614Z,99.90
2018-09-18T22:35:35.310Z,99.90
2018-09-18T22:38:03.021Z,99.90
2018-09-18T22:40:30.722Z,99.90
2018-09-18T22:42:58.462Z,99.90
2018-09-18T22:45:26.166Z,99.90
2018-09-18T22:47:53.899Z,99.90
2018-09-18T22:50:22.020Z,99.90
2018-09-18T22:52:49.745Z,99.90
2018-09-18T22:55:17.493Z,99.90
2018-09-18T22:57:45.211Z,99.90
2018-09-18T23:00:12.986Z,99.90
2018-09-18T23:02:40.829Z,99.90
2018-09-18T23:05:08.768Z,99.90
2018-09-18T23:07:38.490Z,99.90
2018-09-18T23:10:06.396Z,99.90
2018-09-18T23:12:34.126Z,99.90
2018-09-18T23:15:01.862Z,99.90
2018-09-18T23:17:29.627Z,99.90
2018-09-18T23:19:57.350Z,99.90
2018-09-18T23:22:25.137Z,99.90
2018-09-18T23:24:53.495Z,99.90
2018-09-18T23:27:21.209Z,99.90
2018-09-18T23:29:48.977Z,99.90
2018-09-18T23:32:16.706Z,99.90
2018-09-18T23:34:44.402Z,99.90
2018-09-18T23:37:12.843Z,99.90
2018-09-18T23:39:40.592Z,99.90
2018-09-18T23:42:08.359Z,99.90
2018-09-18T23:44:36.042Z,99.90
2018-09-18T23:47:03.801Z,99.90
2018-09-18T23:49:31.653Z,99.90
2018-09-18T23:51:59.425Z,99.90
2018-09-18T23:54:27.318Z,99.90
2018-09-18T23:56:55.057Z,99.90
2018-09-18T23:59:22.789Z,99.90
